Aisha Sarwar — S2CP — position and weather

sailwx.info

Track history (hours):
 
Tides and Currents Weather Stations Pressure Air Temp Water Temp Dewpoint Dewpoint Depression Visibility Wind Speed Wind Dir Waves Ship Positions

Aisha Sarwar

Last reported at 2017-Oct-21 21:48 UTC. Time now 2017-Dec-11 11:34 UTC.
Position S 29°44' E 031°33'.
Warning: this ship's position is 50 days out of date.

Length 189 m; draft 10.2 m.

Type: Cargo ship. MMSI: 405000130.

Date/timePositionNaut miles runAvg speedWind from/ knotsBaromVisibWave heightAir tempDewpointWater temp
2017-Oct-21 21:48S 29°44' E 031°33'310.1
2017-Oct-21 21:30S 29°45' E 031°29'510.3
2017-Oct-21 21:00S 29°46' E 031°24'510.1
2017-Oct-21 20:30S 29°47' E 031°18'510.1
2017-Oct-21 20:00S 29°49' E 031°13'5 9.7
2017-Oct-21 19:30S 29°50' E 031°07'3 6.9
2017-Oct-21 19:00S 29°52' E 031°04'2 3.3
2017-Oct-21 18:29S 29°53' E 031°02'0 0.0
2017-Oct-21 17:59S 29°53' E 031°02'0 0.0
2017-Oct-21 17:29S 29°53' E 031°02'0 0.0
2017-Oct-21 16:59S 29°53' E 031°02'0 0.0
2017-Oct-21 16:29S 29°53' E 031°02'0 0.0
2017-Oct-21 15:59S 29°53' E 031°02'0 0.0
2017-Oct-21 15:29S 29°53' E 031°02'0 0.0
2017-Oct-21 14:59S 29°53' E 031°02'0 0.0
2017-Oct-21 14:29S 29°53' E 031°02'0 0.0
2017-Oct-21 13:29S 29°53' E 031°02'0 0.0
2017-Oct-21 12:56S 29°53' E 031°02'0 0.0
2017-Oct-21 12:29S 29°53' E 031°02'0 0.0
2017-Oct-21 11:59S 29°53' E 031°02'0 0.0
2017-Oct-21 11:30S 29°53' E 031°02'0 0.0
2017-Oct-21 11:00S 29°53' E 031°02'0 0.0
2017-Oct-21 10:30S 29°53' E 031°02'0 0.0
2017-Oct-21 10:00S 29°53' E 031°02'0 0.0
2017-Oct-21 09:30S 29°53' E 031°02'0 0.0
2017-Oct-21 09:00S 29°53' E 031°02'0 0.0
2017-Oct-21 08:30S 29°53' E 031°02'0 0.0
2017-Oct-21 08:00S 29°53' E 031°02'0 0.0
2017-Oct-21 07:30S 29°53' E 031°02'0 0.0
2017-Oct-21 07:01S 29°53' E 031°02'0 0.0
2017-Oct-21 06:31S 29°53' E 031°02'0 0.4
2017-Oct-21 05:55S 29°53' E 031°02'2 5.8
2017-Oct-21 05:30S 29°51' E 031°04'3 5.2
2017-Oct-21 05:01S 29°49' E 031°05'1 1.2
2017-Oct-21 04:31S 29°49' E 031°06'4 8.4
2017-Oct-21 04:01S 29°49' E 031°11'4 8.9
2017-Oct-21 03:31S 29°50' E 031°16'1 1.8
2017-Oct-21 03:01S 29°50' E 031°17'0 0.2
2017-Oct-21 02:31S 29°50' E 031°17'0 0.2
2017-Oct-21 02:01S 29°50' E 031°17'0 0.4
2017-Oct-21 01:31S 29°50' E 031°17'0 0.4
2017-Oct-21 01:01S 29°50' E 031°16'0 0.7
2017-Oct-21 00:31S 29°51' E 031°16'1 2.9
2017-Oct-21 00:01S 29°52' E 031°17'4 8.6
2017-Oct-20 23:31S 29°55' E 031°20'4 8.9
2017-Oct-20 23:01S 29°58' E 031°24'4 7.9
2017-Oct-20 22:31S 30°02' E 031°26'3 6.8
2017-Oct-20 22:00S 30°03' E 031°22'5 9.2
2017-Oct-20 21:31S 30°04' E 031°17'510.6
2017-Oct-20 21:01S 30°07' E 031°12'510.1
2017-Oct-20 20:30S 30°12' E 031°10'4 8.6
2017-Oct-20 20:01S 30°15' E 031°06'4 8.2
2017-Oct-20 19:31S 30°18' E 031°03'5 9.7
2017-Oct-20 19:00S 30°22' E 031°00'  
Track history (hours):
 
Tides and Currents Weather Stations Pressure Air Temp Water Temp Dewpoint Dewpoint Depression Visibility Wind Speed Wind Dir Waves Ship Positions

Aisha Sarwar

Last reported at 2017-Oct-21 21:48 UTC. Time now 2017-Dec-11 11:34 UTC.
Position S 29°44' E 031°33'.
Warning: this ship's position is 50 days out of date.

Length 189 m; draft 10.2 m.

Type: Cargo ship. MMSI: 405000130.

Date/timePositionNaut miles runAvg speedWind from/ knotsBaromVisibWave heightAir tempDewpointWater temp
2017-Oct-21 21:48S 29°44' E 031°33'310.1
2017-Oct-21 21:30S 29°45' E 031°29'510.3
2017-Oct-21 21:00S 29°46' E 031°24'510.1
2017-Oct-21 20:30S 29°47' E 031°18'510.1
2017-Oct-21 20:00S 29°49' E 031°13'5 9.7
2017-Oct-21 19:30S 29°50' E 031°07'3 6.9
2017-Oct-21 19:00S 29°52' E 031°04'2 3.3
2017-Oct-21 18:29S 29°53' E 031°02'0 0.0
2017-Oct-21 17:59S 29°53' E 031°02'0 0.0
2017-Oct-21 17:29S 29°53' E 031°02'0 0.0
2017-Oct-21 16:59S 29°53' E 031°02'0 0.0
2017-Oct-21 16:29S 29°53' E 031°02'0 0.0
2017-Oct-21 15:59S 29°53' E 031°02'0 0.0
2017-Oct-21 15:29S 29°53' E 031°02'0 0.0
2017-Oct-21 14:59S 29°53' E 031°02'0 0.0
2017-Oct-21 14:29S 29°53' E 031°02'0 0.0
2017-Oct-21 13:29S 29°53' E 031°02'0 0.0
2017-Oct-21 12:56S 29°53' E 031°02'0 0.0
2017-Oct-21 12:29S 29°53' E 031°02'0 0.0
2017-Oct-21 11:59S 29°53' E 031°02'0 0.0
2017-Oct-21 11:30S 29°53' E 031°02'0 0.0
2017-Oct-21 11:00S 29°53' E 031°02'0 0.0
2017-Oct-21 10:30S 29°53' E 031°02'0 0.0
2017-Oct-21 10:00S 29°53' E 031°02'0 0.0
2017-Oct-21 09:30S 29°53' E 031°02'0 0.0
2017-Oct-21 09:00S 29°53' E 031°02'0 0.0
2017-Oct-21 08:30S 29°53' E 031°02'0 0.0
2017-Oct-21 08:00S 29°53' E 031°02'0 0.0
2017-Oct-21 07:30S 29°53' E 031°02'0 0.0
2017-Oct-21 07:01S 29°53' E 031°02'0 0.0
2017-Oct-21 06:31S 29°53' E 031°02'0 0.4
2017-Oct-21 05:55S 29°53' E 031°02'2 5.8
2017-Oct-21 05:30S 29°51' E 031°04'3 5.2
2017-Oct-21 05:01S 29°49' E 031°05'1 1.2
2017-Oct-21 04:31S 29°49' E 031°06'4 8.4
2017-Oct-21 04:01S 29°49' E 031°11'4 8.9
2017-Oct-21 03:31S 29°50' E 031°16'1 1.8
2017-Oct-21 03:01S 29°50' E 031°17'0 0.2
2017-Oct-21 02:31S 29°50' E 031°17'0 0.2
2017-Oct-21 02:01S 29°50' E 031°17'0 0.4
2017-Oct-21 01:31S 29°50' E 031°17'0 0.4
2017-Oct-21 01:01S 29°50' E 031°16'0 0.7
2017-Oct-21 00:31S 29°51' E 031°16'1 2.9
2017-Oct-21 00:01S 29°52' E 031°17'4 8.6
2017-Oct-20 23:31S 29°55' E 031°20'4 8.9
2017-Oct-20 23:01S 29°58' E 031°24'4 7.9
2017-Oct-20 22:31S 30°02' E 031°26'3 6.8
2017-Oct-20 22:00S 30°03' E 031°22'5 9.2
2017-Oct-20 21:31S 30°04' E 031°17'510.6
2017-Oct-20 21:01S 30°07' E 031°12'510.1
2017-Oct-20 20:30S 30°12' E 031°10'4 8.6
2017-Oct-20 20:01S 30°15' E 031°06'4 8.2
2017-Oct-20 19:31S 30°18' E 031°03'5 9.7
2017-Oct-20 19:00S 30°22' E 031°00'  

Dump ship's entire track history